»·PEaware :: DAL2901 KLAX-KSFO

DAL2901 :: KLAX-KSFO

FLIGHT INFORMATION

Flight Status: Arrived
Operator:
Delta Air Lines
More flights by this operator :: More flights under this callsign
Pilot: Henderson P. (1210)
Aircraft: BOEING 737-800
(B738)
More flights by this aircraft type
Origin: KLAX Los Angeles Intl
United States
Destination: KSFO San Francisco Intl
United States
More flights between these airports :: More routes between these airports
Route: SUMMR1 STOKD SERFR SERFR3
File this flight plan on PilotEdge
Remarks:
Altitude:
(Current/Filed)
34,000ft
Speed:
(Current/Filed)
449kts
Departed: 20-Sep-18 07:59 AM
Arrived: 20-Sep-18 08:54 AM
Distance/Time
Traveled:
293nm/0:55
Distance/Time
To Go:
Arrived

Flight Plot

Page will automatically refresh every two minutes.

Flight plan parsing failed; only flown route is shown


Map Options




Map Legend


Flown Route
Filed Route
Departure Airport
Arrival Airport
Navaid (VOR, NDB)
Fix

Horizontal Profiles

Position Reports

Time Latitude Longitude Heading Altitude Ground
Speed
20-Sep-18 07:39 33.946980 -118.408474 132 134ft 0kts
20-Sep-18 07:40 33.946980 -118.408474 132 134ft 0kts
20-Sep-18 07:41 33.946980 -118.408474 132 134ft 0kts
20-Sep-18 07:42 33.946980 -118.408474 132 134ft 0kts
20-Sep-18 07:43 33.946980 -118.408474 132 134ft 0kts
20-Sep-18 07:44 33.946980 -118.408474 132 134ft 0kts
20-Sep-18 07:45 33.946980 -118.408474 132 134ft 0kts
20-Sep-18 07:46 33.946980 -118.408474 132 134ft 0kts
20-Sep-18 07:47 33.946980 -118.408474 132 134ft 0kts
20-Sep-18 07:48 33.946980 -118.408474 132 134ft 0kts
20-Sep-18 07:49 33.946980 -118.408474 132 134ft 0kts
20-Sep-18 07:50 33.946980 -118.408474 132 134ft 0kts
20-Sep-18 07:51 33.946980 -118.408474 132 134ft 0kts
20-Sep-18 07:52 33.946980 -118.408474 132 134ft 0kts
20-Sep-18 07:53 33.946980 -118.408474 132 134ft 0kts
20-Sep-18 07:54 33.947066 -118.408584 132 134ft 2kts
20-Sep-18 07:55 33.947473 -118.409154 104 134ft 2kts
20-Sep-18 07:56 33.947430 -118.409712 83 134ft 0kts
20-Sep-18 07:57 33.947430 -118.409710 83 134ft 0kts
20-Sep-18 07:58 33.947438 -118.409631 82 134ft 4kts
20-Sep-18 07:59 33.948649 -118.405878 83 134ft 15kts
20-Sep-18 08:00 33.949040 -118.402190 70 134ft 5kts
20-Sep-18 08:01 33.949812 -118.405463 262 134ft 70kts
20-Sep-18 08:02 33.944692 -118.455588 262 1859ft 172kts
20-Sep-18 08:03 33.940933 -118.528876 264 3610ft 261kts
20-Sep-18 08:04 33.933469 -118.621263 264 6575ft 288kts
20-Sep-18 08:05 33.925828 -118.718970 264 9884ft 298kts
20-Sep-18 08:06 33.917517 -118.826290 266 11908ft 350kts
20-Sep-18 08:07 33.919615 -118.925291 272 14489ft 359kts
20-Sep-18 08:08 33.941806 -119.054550 298 17832ft 374kts
20-Sep-18 08:09 33.998407 -119.162242 306 20549ft 389kts
20-Sep-18 08:10 34.066915 -119.235531 322 22625ft 403kts
20-Sep-18 08:11 34.152321 -119.308843 322 24634ft 415kts
20-Sep-18 08:12 34.264142 -119.405016 322 26974ft 429kts
20-Sep-18 08:13 34.345789 -119.475783 321 28454ft 438kts
20-Sep-18 08:14 34.436654 -119.563533 312 30073ft 441kts
20-Sep-18 08:15 34.535968 -119.686046 311 32608ft 431kts
20-Sep-18 08:16 34.605621 -119.772285 311 33905ft 432kts
20-Sep-18 08:17 34.683403 -119.868452 311 33926ft 428kts
20-Sep-18 08:18 34.766941 -119.971875 311 33934ft 428kts
20-Sep-18 08:19 34.841002 -120.063995 311 33932ft 428kts
20-Sep-18 08:20 34.924155 -120.167475 311 33927ft 429kts
20-Sep-18 08:21 35.001725 -120.264723 311 33923ft 428kts
20-Sep-18 08:22 35.084760 -120.369163 311 33922ft 429kts
20-Sep-18 08:23 35.172449 -120.468363 314 33924ft 430kts
20-Sep-18 08:24 35.260946 -120.567136 314 33921ft 430kts
20-Sep-18 08:25 35.342878 -120.659040 314 33924ft 430kts
20-Sep-18 08:26 35.430888 -120.758592 314 33939ft 430kts
20-Sep-18 08:27 35.518029 -120.852071 319 33957ft 432kts
20-Sep-18 08:28 35.614199 -120.940104 320 33965ft 432kts
20-Sep-18 08:29 35.710164 -121.029193 319 33974ft 432kts
20-Sep-18 08:30 35.806263 -121.118689 320 33976ft 432kts
20-Sep-18 08:31 35.902031 -121.208026 320 33857ft 432kts
20-Sep-18 08:32 35.997671 -121.298039 320 32843ft 434kts
20-Sep-18 08:33 36.093581 -121.385936 324 30483ft 423kts
20-Sep-18 08:34 36.192353 -121.461940 325 28387ft 410kts
20-Sep-18 08:35 36.287781 -121.535940 325 26355ft 400kts
20-Sep-18 08:36 36.381005 -121.609056 325 24347ft 393kts
20-Sep-18 08:37 36.468848 -121.678265 325 22433ft 388kts
20-Sep-18 08:38 36.559407 -121.749606 325 20455ft 382kts
20-Sep-18 08:39 36.648214 -121.820004 325 18517ft 376kts
20-Sep-18 08:40 36.736499 -121.887612 333 16658ft 369kts
20-Sep-18 08:41 36.831164 -121.919521 346 14983ft 347kts
20-Sep-18 08:42 36.925825 -121.945676 346 13162ft 348kts
20-Sep-18 08:43 37.014844 -121.976612 341 12520ft 306kts
20-Sep-18 08:44 37.091518 -122.007204 342 11465ft 283kts
20-Sep-18 08:45 37.165681 -122.036432 342 10184ft 276kts
20-Sep-18 08:46 37.237824 -122.064716 343 8999ft 268kts
20-Sep-18 08:47 37.302508 -122.090193 343 7764ft 262kts
20-Sep-18 08:48 37.371471 -122.117348 343 6464ft 257kts
20-Sep-18 08:49 37.431366 -122.138133 345 5831ft 214kts
20-Sep-18 08:50 37.480744 -122.155055 345 5330ft 158kts
20-Sep-18 08:51 37.522481 -122.169420 345 3985ft 152kts
20-Sep-18 08:52 37.551116 -122.214795 304 2520ft 159kts
20-Sep-18 08:53 37.571101 -122.261594 300 1738ft 146kts
20-Sep-18 08:54 37.589940 -122.306436 297 952ft 145kts
20-Sep-18 08:55 37.608414 -122.350412 297 195ft 140kts
20-Sep-18 08:56 37.618991 -122.377991 261 21ft 9kts
20-Sep-18 08:57 37.616706 -122.379612 203 21ft 10kts
20-Sep-18 08:58 37.614777 -122.380864 206 21ft 8kts
20-Sep-18 08:59 37.614813 -122.381763 301 21ft 0kts
20-Sep-18 09:00 37.614814 -122.381764 301 21ft 0kts
20-Sep-18 09:01 37.614814 -122.381764 301 21ft 0kts
20-Sep-18 09:02 37.614809 -122.381753 301 21ft 0kts
20-Sep-18 09:03 37.614809 -122.381753 301 21ft 0kts
20-Sep-18 09:04 37.614809 -122.381753 301 21ft 0kts
20-Sep-18 09:05 37.614809 -122.381753 301 21ft 0kts
20-Sep-18 09:06 37.614809 -122.381753 301 21ft 0kts
20-Sep-18 09:07 37.614809 -122.381753 301 21ft 0kts
20-Sep-18 09:08 37.614809 -122.381753 301 21ft 0kts
20-Sep-18 09:09 37.614809 -122.381753 301 21ft 0kts
20-Sep-18 09:10 37.614809 -122.381753 301 21ft 0kts

Navigation Log

Ident Type
Flight plan parsing failed, navigation log unavailable